Roscoe, MO (64781)

6:12 AM CST on December 06, 2016 (GMT -0600)
St. Clair County | | Change Station

Elev 965 ft 37.90 °N, 93.80 °W | Updated 37 seconds ago

Overcast
Overcast
36.5 °F
Feels Like 36 °F
N
0.2
Wind Variable Wind from NNW
Gusts 2.5 mph

Today
High -- | Low -- °F
--% Chance of Precip.
Yesterday
High -- | Low -- °F
Precip. -- in
Pressure 29.85 in
Visibility 8.0 miles
Clouds Scattered Clouds 1100 ft
Mostly Cloudy 2100 ft
Overcast 2600 ft
Windchill 36 °F
Dew Point 36 °F
Humidity 97%
Rainfall 0.00 in
Snow Depth Not available.
7:17 AM 4:55 PM
Waxing Crescent, 41% visible
METAR KGLY 061155Z AUTO 33009KT 8SM SCT011 BKN021 OVC026 00/00 A2985 RMK AO2
Pressure 29.85 in
Visibility 8.0 miles
Clouds Scattered Clouds 1100 ft
Mostly Cloudy 2100 ft
Overcast 2600 ft
Windchill 36 °F
Dew Point 36 °F
Humidity 97%
Rainfall 0.00 in
Snow Depth Not available.
7:17 AM 4:55 PM
Waxing Crescent, 41% visible
METAR KGLY 061155Z AUTO 33009KT 8SM SCT011 BKN021 OVC026 00/00 A2985 RMK AO2

10-Day Weather Forecast

Almanac

Astronomy

Dec. 06, 2016 Rise Set
Actual Time
Civil Twilight
Nautical Twilight
Astronomical Twilight
Moon
Length of Visible Light
Length of Day
Tomorrow will be .
, % of the Moon is Illuminated

Today's Extremes

State Highs State Lows

Community

WunderPhotos

Upload Photos

1,955,936 photos uploaded!

WunderBlog® & News

Nearby

Air Quality

  Air Quality AQ Index Pollutant
Not available.

Snow Depth

Station Depth Elevation

Earthquake Activity

City Distance Mag. Time & Date
Minimum magnitude displayed is 2.5.

Coastal Water Temperatures

Place Temperature

Stations

Nearby Weather Stations

Station Location Temp. Windchill Dew Point Humidity Wind Precip. Elev Updated Type
                   

Watches & Warnings

There are currently no watches in effect.